Turner, Minnesota
Current Conditions -  °F | °C
As of 1:27 PM on Sunday 21 Dec 2014 (Local Time) from KHZX Reporting Station
Overcast Overcast  
Wind Chill: 25°   Ceiling: 500
Heat Index: 32°   Visibility: 2.5mi
Dew Point: 32°   Wind: 8mph
Humidity: 100%   Direction: 150°SSE
Pressure: 29.73"   Gusts: NA
Location:  46.7232°N, 93.3159°W
Report Text: KHZX 211927Z AUTO 15007KT 2 1/2SM OVC005 00/00 A2973 RMK AO2
Loading
Personal Weather Stations






























Interactive Weather Map New forecast layout! Learn more

10-Day Weather Forecast

Advertisements
Track Severe Weather on mobile